Main page
METAR-TAF:

METAR-TAF

Airports :

Lemnos, Greece

Lemnos International Airport

latitude: 39-55N, longitude: 025-14E, elevation: 5 m

Current weather observation

The report was made 27 minutes ago, at 22:50 UTC
Wind 3 kt from variable directions
Temperature 9°C
Humidity 81%
Pressure 1014 hPa

METAR: LGLM 192250Z AUTO VRB03KT //// // ////// 09/06 Q1014 RE//

Time: 01:17 (23:17 UTC)

Forecast

The report was made 3 hours and 17 minutes ago, at 20:00 UTC
Forecast valid from 19 at 21 UTC to 20 at 06 UTC
Wind 15 kt from the South
Visibility 10 km or more
Few clouds at a height of 2500 ft

TAF: LGLM 192000Z 1921/2006 19015KT 9999 FEW025

Weather observations and forecasts of more than 4000 airports (METAR and TAF reports).

The available stations are represented by yellow and red dots on the map.

Hover mouse over dot to see the name of the station.

Then click to see weather observations and forecasts.

To change the map : click on the green buttons with a black cross to zoom in, on the green button with a dash to zoom out, or on the green arrows for adjacent maps.


METAR-TAF: